Weather at Jimmy Carter Regional Airport

Public forecast

Using degrees Fahrenheit for public forecast. Weather courtesy of forecast.io.

Current aviation weather report (METAR) for Jimmy Carter Regional Airport

Retrieved 2020/11/30 01:30 UTC (0 seconds ago):

KACJ 300130Z AUTO 16005KT 5SM -RA OVC003 17/16 A2985 RMK AO2

Closest aviation forecast (TAF) to Jimmy Carter Regional Airport

Closest forecast is Southwest Georgia Regional Airport, 34.5 nm (64.0 km) S. Retrieved 2020-11-30 00:27 UTC (55 minutes ago):

TAF KABY 292323Z 3000/3024 14008KT 4SM -RA BR OVC004 FM300300 18010G16KT 5SM -RA OVC006 FM301000 29014G20KT P6SM BKN020 FM302100 30012G18KT P6SM BKN035